createdAt,value
2023-04-02T08:50:54.064Z,99659.72
2023-04-02T08:53:28.556Z,99664.72
2023-04-02T08:56:05.491Z,99666.66
2023-04-02T08:58:41.434Z,99677.41
2023-04-02T09:01:23.842Z,99690.91
2023-04-02T09:03:54.372Z,99685.31
2023-04-02T09:06:22.075Z,99692.72
2023-04-02T09:08:51.794Z,99699.94
2023-04-02T09:11:18.128Z,99700.00
2023-04-02T09:13:47.854Z,99707.97
2023-04-02T09:16:18.297Z,99712.69
2023-04-02T09:18:45.535Z,99724.81
2023-04-02T09:21:21.011Z,99726.28
2023-04-02T09:23:48.754Z,99731.06
2023-04-02T09:26:27.602Z,99730.50
2023-04-02T09:29:20.835Z,99736.06
2023-04-02T09:31:55.476Z,99745.50
2023-04-02T09:34:33.191Z,99743.13
2023-04-02T09:37:16.261Z,99755.91
2023-04-02T09:39:42.945Z,99763.88
2023-04-02T09:42:31.438Z,99766.22
2023-04-02T09:45:12.412Z,99771.59
2023-04-02T09:47:42.308Z,99769.22
2023-04-02T09:50:21.997Z,99785.78
2023-04-02T09:52:49.726Z,99784.16
2023-04-02T09:55:16.107Z,99790.59
2023-04-02T09:57:43.003Z,99792.94
2023-04-02T10:00:31.685Z,99800.91
2023-04-02T10:03:06.806Z,99802.91
2023-04-02T10:08:28.098Z,99824.06
2023-04-02T10:10:57.937Z,99828.66
2023-04-02T10:13:31.348Z,99844.75
2023-04-02T10:16:09.472Z,99841.28
2023-04-02T10:18:41.427Z,99840.19
2023-04-02T10:21:12.667Z,99846.19
2023-04-02T10:23:39.573Z,99858.25
2023-04-02T10:26:21.944Z,99852.19
2023-04-02T10:29:19.017Z,99853.19
2023-04-02T10:32:00.380Z,99864.53
2023-04-02T10:35:15.944Z,99867.63
2023-04-02T10:38:09.552Z,99868.13
2023-04-02T10:40:42.479Z,99870.75
2023-04-02T10:43:41.066Z,99879.41
2023-04-02T10:47:04.417Z,99875.16
2023-04-02T10:50:17.720Z,99888.63
2023-04-02T10:52:56.514Z,99891.03
2023-04-02T10:55:30.977Z,99907.22
2023-04-02T10:58:03.622Z,99903.38
2023-04-02T11:00:37.106Z,99900.66
2023-04-02T11:03:15.088Z,99902.50
2023-04-02T11:05:50.801Z,99908.56
2023-04-02T11:08:26.424Z,99915.31
2023-04-02T11:11:20.122Z,99911.53
2023-04-02T11:13:57.978Z,99922.44
2023-04-02T11:16:25.411Z,99920.81
2023-04-02T11:19:16.885Z,99928.50
2023-04-02T11:21:58.580Z,99930.03
2023-04-02T11:24:32.997Z,99930.03
2023-04-02T11:27:11.395Z,99939.63
2023-04-02T11:29:49.286Z,99941.59
2023-04-02T11:32:34.733Z,99954.03
2023-04-02T11:35:22.982Z,99956.78
2023-04-02T11:37:49.586Z,99965.41
2023-04-02T11:40:18.922Z,99974.94
2023-04-02T11:42:50.936Z,99975.69
2023-04-02T11:45:21.230Z,99984.31
2023-04-02T11:48:00.557Z,99981.13
2023-04-02T11:50:29.995Z,99984.50
2023-04-02T11:53:02.005Z,99975.88
2023-04-02T11:55:36.099Z,99982.75
2023-04-02T11:58:30.959Z,99993.41
2023-04-02T12:01:09.278Z,99987.44
2023-04-02T12:04:11.422Z,100002.47
2023-04-02T12:06:46.801Z,100001.31
2023-04-02T12:09:23.539Z,100007.22
2023-04-02T12:11:58.968Z,100020.97
2023-04-02T12:14:51.742Z,100029.13
2023-04-02T12:17:39.793Z,100021.84
2023-04-02T12:20:09.660Z,100032.47
2023-04-02T12:22:47.880Z,100030.38
2023-04-02T12:25:33.903Z,100032.88
2023-04-02T12:28:06.407Z,100029.44
2023-04-02T12:30:33.996Z,100030.38
2023-04-02T12:33:21.993Z,100039.78
2023-04-02T12:35:53.282Z,100048.31
2023-04-02T12:38:43.566Z,100049.41
2023-04-02T12:41:27.356Z,100050.31
2023-04-02T12:44:02.402Z,100055.69
2023-04-02T12:46:31.524Z,100067.66
2023-04-02T12:49:06.641Z,100069.22
2023-04-02T12:51:36.192Z,100065.06
2023-04-02T12:54:02.955Z,100070.19
2023-04-02T12:56:29.308Z,100075.69
2023-04-02T12:58:57.868Z,100082.72
2023-04-02T13:01:29.354Z,100088.38
2023-04-02T13:04:08.107Z,100080.66
2023-04-02T13:06:36.234Z,100086.78
2023-04-02T13:09:06.012Z,100091.88
2023-04-02T13:11:38.087Z,100091.09
2023-04-02T13:14:05.772Z,100101.50
2023-04-02T13:16:38.192Z,100100.78
2023-04-02T13:19:16.705Z,100102.47
2023-04-02T13:21:43.890Z,100110.16
2023-04-02T13:24:25.323Z,100122.72
2023-04-02T13:26:55.770Z,100127.41
2023-04-02T13:29:33.549Z,100113.44
2023-04-02T13:32:02.294Z,100119.97
2023-04-02T13:34:30.076Z,100127.75
2023-04-02T13:36:57.413Z,100129.84
2023-04-02T13:39:24.186Z,100127.84
2023-04-02T13:42:02.731Z,100131.63
2023-04-02T13:44:35.060Z,100133.94
2023-04-02T13:47:01.740Z,100135.59
2023-04-02T13:49:28.192Z,100139.81
2023-04-02T13:51:58.703Z,100144.53
2023-04-02T13:54:34.912Z,100144.84
2023-04-02T13:57:01.443Z,100146.56
2023-04-02T13:59:28.004Z,100150.38
2023-04-02T14:01:59.295Z,100146.56
2023-04-02T14:04:29.927Z,100142.28
2023-04-02T14:07:30.025Z,100159.34
2023-04-02T14:10:20.437Z,100169.72
2023-04-02T14:13:15.284Z,100186.94
2023-04-02T14:16:08.729Z,100176.59
2023-04-02T14:18:36.631Z,100178.09
2023-04-02T14:21:22.984Z,100178.09
2023-04-02T14:24:05.633Z,100182.03
2023-04-02T14:27:04.366Z,100187.84
2023-04-02T14:29:43.791Z,100189.81
2023-04-02T14:32:34.413Z,100194.84
2023-04-02T14:35:13.043Z,100216.22
2023-04-02T14:37:54.436Z,100214.16
2023-04-02T14:40:28.503Z,100218.72
2023-04-02T14:43:02.991Z,100218.78
2023-04-02T14:45:55.043Z,100223.06
2023-04-02T14:48:39.985Z,100225.88
2023-04-02T14:51:14.438Z,100234.19
2023-04-02T14:53:52.662Z,100246.34
2023-04-02T14:56:21.728Z,100259.44
2023-04-02T14:59:24.163Z,100252.63
2023-04-02T15:01:56.613Z,100252.78
2023-04-02T15:04:30.901Z,100246.88
2023-04-02T15:07:05.444Z,100254.78
2023-04-02T15:09:38.224Z,100261.69
2023-04-02T15:12:28.680Z,100255.47
2023-04-02T15:15:03.428Z,100259.97
2023-04-02T15:17:31.004Z,100266.81
2023-04-02T15:20:12.148Z,100264.34
2023-04-02T15:22:47.577Z,100262.50
2023-04-02T15:25:29.417Z,100268.88
2023-04-02T15:28:07.352Z,100270.50
2023-04-02T15:30:45.095Z,100278.31
2023-04-02T15:33:28.215Z,100273.91
2023-04-02T15:36:16.194Z,100264.19
2023-04-02T15:38:54.520Z,100267.63
2023-04-02T15:41:32.240Z,100270.19
2023-04-02T15:44:09.776Z,100273.59
2023-04-02T15:47:02.307Z,100269.44
2023-04-02T15:50:04.281Z,100276.44
2023-04-02T15:52:46.826Z,100273.75
2023-04-02T15:55:27.870Z,100286.91
2023-04-02T15:58:12.757Z,100287.59
2023-04-02T16:01:02.141Z,100287.66
2023-04-02T16:03:56.139Z,100288.53
2023-04-02T16:06:34.521Z,100297.22
2023-04-02T16:09:16.060Z,100307.91
2023-04-02T16:11:42.698Z,100309.59
2023-04-02T16:14:32.055Z,100315.78
2023-04-02T16:17:10.850Z,100316.63
2023-04-02T16:20:14.457Z,100328.94
